Harper, Oregon
Current Conditions -  °F | °C
As of 5:53 PM on Saturday 25 Oct 2014 (Local Time) from KONO Reporting Station
Clear Clear  
Wind Chill: 57°   Ceiling: Unl
Heat Index: 57°   Visibility: 10mi
Dew Point: 48°   Wind: 5mph
Humidity: 72%   Direction: 330°NNW
Pressure: 29.76"   Gusts: NA
Location:  43.86°N, 117.61°W
Report Text: KONO 252353Z AUTO 33004KT 10SM CLR 14/09 A2976 RMK AO2 SLP082 T01390089 10150 20078 56007
Loading
Personal Weather Stations






























Interactive Weather Map
Tropical Storm Tracking
New forecast layout! Learn more

10-Day Weather Forecast

Advertisements
Track Severe Weather on mobile